sensor_id;sensor_type;location;lat;lon;timestamp;temperature;humidity
3202;DHT22;34843;48.744;8.958;2023-03-19T00:01:26;8.00;99.90
3202;DHT22;34843;48.744;8.958;2023-03-19T00:03:51;8.00;99.90
3202;DHT22;34843;48.744;8.958;2023-03-19T00:06:17;8.00;99.90
3202;DHT22;34843;48.744;8.958;2023-03-19T00:08:43;7.90;99.90
3202;DHT22;34843;48.744;8.958;2023-03-19T00:11:10;7.90;99.90
3202;DHT22;34843;48.744;8.958;2023-03-19T00:13:35;8.00;99.90
3202;DHT22;34843;48.744;8.958;2023-03-19T00:16:01;8.00;99.90
3202;DHT22;34843;48.744;8.958;2023-03-19T00:18:27;7.90;99.90
3202;DHT22;34843;48.744;8.958;2023-03-19T00:20:52;7.80;99.90
3202;DHT22;34843;48.744;8.958;2023-03-19T00:23:18;7.70;99.90
3202;DHT22;34843;48.744;8.958;2023-03-19T00:25:43;7.70;99.90
3202;DHT22;34843;48.744;8.958;2023-03-19T00:28:09;7.80;99.90
3202;DHT22;34843;48.744;8.958;2023-03-19T00:30:34;7.70;99.90
3202;DHT22;34843;48.744;8.958;2023-03-19T00:33:00;7.70;99.90
3202;DHT22;34843;48.744;8.958;2023-03-19T00:35:26;7.70;99.90
3202;DHT22;34843;48.744;8.958;2023-03-19T00:37:52;7.70;99.90
3202;DHT22;34843;48.744;8.958;2023-03-19T00:40:17;7.70;99.90
3202;DHT22;34843;48.744;8.958;2023-03-19T00:42:43;7.70;99.90
3202;DHT22;34843;48.744;8.958;2023-03-19T00:45:10;7.70;99.90
3202;DHT22;34843;48.744;8.958;2023-03-19T00:47:36;7.70;99.90
3202;DHT22;34843;48.744;8.958;2023-03-19T00:50:02;7.70;99.90
3202;DHT22;34843;48.744;8.958;2023-03-19T00:52:28;7.50;99.90
3202;DHT22;34843;48.744;8.958;2023-03-19T00:54:54;7.80;99.90
3202;DHT22;34843;48.744;8.958;2023-03-19T00:57:19;7.80;99.90
3202;DHT22;34843;48.744;8.958;2023-03-19T00:59:45;7.90;99.90
3202;DHT22;34843;48.744;8.958;2023-03-19T01:02:11;8.00;99.90
3202;DHT22;34843;48.744;8.958;2023-03-19T01:04:36;8.10;99.90
3202;DHT22;34843;48.744;8.958;2023-03-19T01:07:02;8.20;99.90
3202;DHT22;34843;48.744;8.958;2023-03-19T01:09:27;8.20;99.90
3202;DHT22;34843;48.744;8.958;2023-03-19T01:11:53;8.20;99.90
3202;DHT22;34843;48.744;8.958;2023-03-19T01:14:18;8.10;99.90
3202;DHT22;34843;48.744;8.958;2023-03-19T01:16:44;8.10;99.90
3202;DHT22;34843;48.744;8.958;2023-03-19T01:19:10;8.10;99.90
3202;DHT22;34843;48.744;8.958;2023-03-19T01:21:37;8.10;99.90
3202;DHT22;34843;48.744;8.958;2023-03-19T01:24:02;8.20;99.90
3202;DHT22;34843;48.744;8.958;2023-03-19T01:26:28;8.30;99.90
3202;DHT22;34843;48.744;8.958;2023-03-19T01:28:53;8.40;99.90
3202;DHT22;34843;48.744;8.958;2023-03-19T01:31:19;8.50;99.90
3202;DHT22;34843;48.744;8.958;2023-03-19T01:33:45;8.60;99.90
3202;DHT22;34843;48.744;8.958;2023-03-19T01:36:10;8.80;99.90
3202;DHT22;34843;48.744;8.958;2023-03-19T01:38:36;8.90;99.90
3202;DHT22;34843;48.744;8.958;2023-03-19T01:41:02;9.10;99.90
3202;DHT22;34843;48.744;8.958;2023-03-19T01:43:29;9.20;99.90
3202;DHT22;34843;48.744;8.958;2023-03-19T01:46:07;9.30;99.90
3202;DHT22;34843;48.744;8.958;2023-03-19T01:48:40;9.30;99.90
3202;DHT22;34843;48.744;8.958;2023-03-19T01:51:07;9.30;99.90
3202;DHT22;34843;48.744;8.958;2023-03-19T01:53:35;9.20;99.90
3202;DHT22;34843;48.744;8.958;2023-03-19T01:56:10;9.20;99.90
3202;DHT22;34843;48.744;8.958;2023-03-19T01:58:38;9.30;99.90
3202;DHT22;34843;48.744;8.958;2023-03-19T02:01:04;9.30;99.90
3202;DHT22;34843;48.744;8.958;2023-03-19T02:03:30;9.20;99.90
3202;DHT22;34843;48.744;8.958;2023-03-19T02:05:56;9.10;99.90
3202;DHT22;34843;48.744;8.958;2023-03-19T02:08:23;9.00;99.90
3202;DHT22;34843;48.744;8.958;2023-03-19T02:10:49;9.00;99.90
3202;DHT22;34843;48.744;8.958;2023-03-19T02:13:15;9.00;99.90
3202;DHT22;34843;48.744;8.958;2023-03-19T02:15:41;8.90;99.90
3202;DHT22;34843;48.744;8.958;2023-03-19T02:18:07;8.80;99.90
3202;DHT22;34843;48.744;8.958;2023-03-19T02:26:02;8.60;99.90
3202;DHT22;34843;48.744;8.958;2023-03-19T02:28:29;8.50;99.90
3202;DHT22;34843;48.744;8.958;2023-03-19T02:30:56;8.50;99.90
3202;DHT22;34843;48.744;8.958;2023-03-19T02:33:22;8.50;99.90
3202;DHT22;34843;48.744;8.958;2023-03-19T02:35:49;8.40;99.90
3202;DHT22;34843;48.744;8.958;2023-03-19T02:38:15;8.40;99.90
3202;DHT22;34843;48.744;8.958;2023-03-19T02:40:58;8.40;99.90
3202;DHT22;34843;48.744;8.958;2023-03-19T02:43:25;8.50;99.90
3202;DHT22;34843;48.744;8.958;2023-03-19T02:45:51;8.50;99.90
3202;DHT22;34843;48.744;8.958;2023-03-19T02:48:17;8.60;99.90
3202;DHT22;34843;48.744;8.958;2023-03-19T02:50:43;8.50;99.90
3202;DHT22;34843;48.744;8.958;2023-03-19T02:53:08;8.50;99.90
3202;DHT22;34843;48.744;8.958;2023-03-19T02:55:34;8.40;99.90
3202;DHT22;34843;48.744;8.958;2023-03-19T02:58:00;8.30;99.90
3202;DHT22;34843;48.744;8.958;2023-03-19T03:00:25;8.30;99.90
3202;DHT22;34843;48.744;8.958;2023-03-19T03:02:53;8.30;99.90
3202;DHT22;34843;48.744;8.958;2023-03-19T03:05:19;8.30;99.90
3202;DHT22;34843;48.744;8.958;2023-03-19T03:07:45;8.30;99.90
3202;DHT22;34843;48.744;8.958;2023-03-19T03:10:11;8.20;99.90
3202;DHT22;34843;48.744;8.958;2023-03-19T03:12:37;8.20;99.90
3202;DHT22;34843;48.744;8.958;2023-03-19T03:15:04;8.20;99.90
3202;DHT22;34843;48.744;8.958;2023-03-19T03:17:30;8.20;99.90
3202;DHT22;34843;48.744;8.958;2023-03-19T03:19:55;8.30;99.90
3202;DHT22;34843;48.744;8.958;2023-03-19T03:22:21;8.30;99.90
3202;DHT22;34843;48.744;8.958;2023-03-19T03:24:47;8.30;99.90
3202;DHT22;34843;48.744;8.958;2023-03-19T03:27:13;8.20;99.90
3202;DHT22;34843;48.744;8.958;2023-03-19T03:29:38;8.30;99.90
3202;DHT22;34843;48.744;8.958;2023-03-19T03:32:04;8.20;99.90
3202;DHT22;34843;48.744;8.958;2023-03-19T03:34:30;8.20;99.90
3202;DHT22;34843;48.744;8.958;2023-03-19T03:36:56;8.20;99.90
3202;DHT22;34843;48.744;8.958;2023-03-19T03:39:21;8.30;99.90
3202;DHT22;34843;48.744;8.958;2023-03-19T03:41:47;8.40;99.90
3202;DHT22;34843;48.744;8.958;2023-03-19T03:44:12;8.40;99.90
3202;DHT22;34843;48.744;8.958;2023-03-19T03:46:38;8.40;99.90
3202;DHT22;34843;48.744;8.958;2023-03-19T03:49:04;8.40;99.90
3202;DHT22;34843;48.744;8.958;2023-03-19T03:51:29;8.40;99.90
3202;DHT22;34843;48.744;8.958;2023-03-19T03:53:55;8.50;99.90
3202;DHT22;34843;48.744;8.958;2023-03-19T03:56:21;8.50;99.90
3202;DHT22;34843;48.744;8.958;2023-03-19T03:58:46;8.40;99.90
3202;DHT22;34843;48.744;8.958;2023-03-19T04:01:15;8.40;99.90
3202;DHT22;34843;48.744;8.958;2023-03-19T04:03:41;8.40;99.90
3202;DHT22;34843;48.744;8.958;2023-03-19T04:06:09;8.40;99.90
3202;DHT22;34843;48.744;8.958;2023-03-19T04:08:37;8.40;99.90
3202;DHT22;34843;48.744;8.958;2023-03-19T04:11:06;8.40;99.90
3202;DHT22;34843;48.744;8.958;2023-03-19T04:13:32;8.40;99.90
3202;DHT22;34843;48.744;8.958;2023-03-19T04:16:04;8.50;99.90
3202;DHT22;34843;48.744;8.958;2023-03-19T04:18:30;8.50;99.90
3202;DHT22;34843;48.744;8.958;2023-03-19T04:20:55;8.60;99.90
3202;DHT22;34843;48.744;8.958;2023-03-19T04:23:22;8.50;99.90
3202;DHT22;34843;48.744;8.958;2023-03-19T04:25:49;8.60;99.90
3202;DHT22;34843;48.744;8.958;2023-03-19T04:28:15;8.60;99.90
3202;DHT22;34843;48.744;8.958;2023-03-19T04:30:40;8.50;99.90
3202;DHT22;34843;48.744;8.958;2023-03-19T04:33:08;8.50;99.90
3202;DHT22;34843;48.744;8.958;2023-03-19T04:35:33;8.40;99.90
3202;DHT22;34843;48.744;8.958;2023-03-19T04:37:59;8.50;99.90
3202;DHT22;34843;48.744;8.958;2023-03-19T04:40:24;8.50;99.90
3202;DHT22;34843;48.744;8.958;2023-03-19T04:42:50;8.50;99.90
3202;DHT22;34843;48.744;8.958;2023-03-19T04:45:16;8.50;99.90
3202;DHT22;34843;48.744;8.958;2023-03-19T04:47:41;8.60;99.90
3202;DHT22;34843;48.744;8.958;2023-03-19T04:50:08;8.50;99.90
3202;DHT22;34843;48.744;8.958;2023-03-19T04:52:34;8.50;99.90
3202;DHT22;34843;48.744;8.958;2023-03-19T04:55:02;8.50;99.90
3202;DHT22;34843;48.744;8.958;2023-03-19T04:57:28;8.50;99.90
3202;DHT22;34843;48.744;8.958;2023-03-19T04:59:53;8.50;99.90
3202;DHT22;34843;48.744;8.958;2023-03-19T05:02:19;8.50;99.90
3202;DHT22;34843;48.744;8.958;2023-03-19T05:04:45;8.50;99.90
3202;DHT22;34843;48.744;8.958;2023-03-19T05:07:10;8.50;99.90
3202;DHT22;34843;48.744;8.958;2023-03-19T05:09:36;8.50;99.90
3202;DHT22;34843;48.744;8.958;2023-03-19T05:14:27;8.60;99.90
3202;DHT22;34843;48.744;8.958;2023-03-19T05:16:53;8.60;99.90
3202;DHT22;34843;48.744;8.958;2023-03-19T05:19:18;8.50;99.90
3202;DHT22;34843;48.744;8.958;2023-03-19T05:21:44;8.50;99.90
3202;DHT22;34843;48.744;8.958;2023-03-19T05:24:10;8.40;99.90
3202;DHT22;34843;48.744;8.958;2023-03-19T05:26:35;8.40;99.90
3202;DHT22;34843;48.744;8.958;2023-03-19T05:29:02;8.40;99.90
3202;DHT22;34843;48.744;8.958;2023-03-19T05:31:28;8.40;99.90
3202;DHT22;34843;48.744;8.958;2023-03-19T05:33:53;8.30;99.90
3202;DHT22;34843;48.744;8.958;2023-03-19T05:36:19;8.30;99.90
3202;DHT22;34843;48.744;8.958;2023-03-19T05:38:44;8.30;99.90
3202;DHT22;34843;48.744;8.958;2023-03-19T05:41:10;8.30;99.90
3202;DHT22;34843;48.744;8.958;2023-03-19T05:43:35;8.30;99.90
3202;DHT22;34843;48.744;8.958;2023-03-19T05:46:01;8.40;99.90
3202;DHT22;34843;48.744;8.958;2023-03-19T05:48:27;8.40;99.90
3202;DHT22;34843;48.744;8.958;2023-03-19T05:50:52;8.40;99.90
3202;DHT22;34843;48.744;8.958;2023-03-19T05:53:19;8.50;99.90
3202;DHT22;34843;48.744;8.958;2023-03-19T05:55:44;8.60;99.90
3202;DHT22;34843;48.744;8.958;2023-03-19T05:58:10;8.50;99.90
3202;DHT22;34843;48.744;8.958;2023-03-19T06:00:36;8.50;99.90
3202;DHT22;34843;48.744;8.958;2023-03-19T06:03:01;8.40;99.90
3202;DHT22;34843;48.744;8.958;2023-03-19T06:05:27;8.50;99.90
3202;DHT22;34843;48.744;8.958;2023-03-19T06:07:52;8.50;99.90
3202;DHT22;34843;48.744;8.958;2023-03-19T06:10:18;8.50;99.90
3202;DHT22;34843;48.744;8.958;2023-03-19T06:12:44;8.50;99.90
3202;DHT22;34843;48.744;8.958;2023-03-19T06:15:10;8.50;99.90
3202;DHT22;34843;48.744;8.958;2023-03-19T06:17:36;8.50;99.90
3202;DHT22;34843;48.744;8.958;2023-03-19T06:20:01;8.60;99.90
3202;DHT22;34843;48.744;8.958;2023-03-19T06:22:27;8.60;99.90
3202;DHT22;34843;48.744;8.958;2023-03-19T06:24:53;8.50;99.90
3202;DHT22;34843;48.744;8.958;2023-03-19T06:27:18;8.50;99.90
3202;DHT22;34843;48.744;8.958;2023-03-19T06:29:44;8.50;99.90
3202;DHT22;34843;48.744;8.958;2023-03-19T06:32:09;8.50;99.90
3202;DHT22;34843;48.744;8.958;2023-03-19T06:34:35;8.50;99.90
3202;DHT22;34843;48.744;8.958;2023-03-19T06:37:01;8.50;99.90
3202;DHT22;34843;48.744;8.958;2023-03-19T06:39:27;8.50;99.90
3202;DHT22;34843;48.744;8.958;2023-03-19T06:41:52;8.50;99.90
3202;DHT22;34843;48.744;8.958;2023-03-19T06:44:18;8.50;99.90
3202;DHT22;34843;48.744;8.958;2023-03-19T06:46:44;8.50;99.90
3202;DHT22;34843;48.744;8.958;2023-03-19T06:49:10;8.50;99.90
3202;DHT22;34843;48.744;8.958;2023-03-19T06:51:36;8.50;99.90
3202;DHT22;34843;48.744;8.958;2023-03-19T06:54:01;8.60;99.90
3202;DHT22;34843;48.744;8.958;2023-03-19T06:56:27;8.60;99.90
3202;DHT22;34843;48.744;8.958;2023-03-19T06:58:53;8.70;99.90
3202;DHT22;34843;48.744;8.958;2023-03-19T07:01:19;8.70;99.90
3202;DHT22;34843;48.744;8.958;2023-03-19T07:03:46;8.70;99.90
3202;DHT22;34843;48.744;8.958;2023-03-19T07:06:11;8.80;99.90
3202;DHT22;34843;48.744;8.958;2023-03-19T07:08:37;8.90;99.90
3202;DHT22;34843;48.744;8.958;2023-03-19T07:11:07;9.10;99.90
3202;DHT22;34843;48.744;8.958;2023-03-19T07:13:33;9.20;99.90
3202;DHT22;34843;48.744;8.958;2023-03-19T07:15:58;9.20;99.90
3202;DHT22;34843;48.744;8.958;2023-03-19T07:18:24;9.30;99.90
3202;DHT22;34843;48.744;8.958;2023-03-19T07:20:50;9.40;99.90
3202;DHT22;34843;48.744;8.958;2023-03-19T07:23:17;9.60;99.90
3202;DHT22;34843;48.744;8.958;2023-03-19T07:25:43;9.80;99.90
3202;DHT22;34843;48.744;8.958;2023-03-19T07:28:09;10.10;99.90
3202;DHT22;34843;48.744;8.958;2023-03-19T07:30:34;10.20;99.90
3202;DHT22;34843;48.744;8.958;2023-03-19T07:33:00;10.40;99.90
3202;DHT22;34843;48.744;8.958;2023-03-19T07:35:26;10.50;99.90
3202;DHT22;34843;48.744;8.958;2023-03-19T07:37:51;10.50;99.90
3202;DHT22;34843;48.744;8.958;2023-03-19T07:40:17;10.60;99.90
3202;DHT22;34843;48.744;8.958;2023-03-19T07:42:42;10.70;99.90
3202;DHT22;34843;48.744;8.958;2023-03-19T07:45:08;10.90;99.90
3202;DHT22;34843;48.744;8.958;2023-03-19T07:47:34;10.80;99.90
3202;DHT22;34843;48.744;8.958;2023-03-19T07:49:59;10.90;99.90
3202;DHT22;34843;48.744;8.958;2023-03-19T07:52:25;10.90;99.90
3202;DHT22;34843;48.744;8.958;2023-03-19T07:54:51;10.90;99.90
3202;DHT22;34843;48.744;8.958;2023-03-19T07:57:17;11.10;99.90
3202;DHT22;34843;48.744;8.958;2023-03-19T07:59:43;11.10;99.90
3202;DHT22;34843;48.744;8.958;2023-03-19T08:02:13;11.10;99.90
3202;DHT22;34843;48.744;8.958;2023-03-19T08:04:39;11.20;99.90
3202;DHT22;34843;48.744;8.958;2023-03-19T08:07:04;11.20;99.90
3202;DHT22;34843;48.744;8.958;2023-03-19T08:09:31;11.20;99.90
3202;DHT22;34843;48.744;8.958;2023-03-19T08:11:57;11.20;99.90
3202;DHT22;34843;48.744;8.958;2023-03-19T08:14:22;11.20;99.90
3202;DHT22;34843;48.744;8.958;2023-03-19T08:16:48;11.50;99.90
3202;DHT22;34843;48.744;8.958;2023-03-19T08:19:14;11.80;99.90
3202;DHT22;34843;48.744;8.958;2023-03-19T08:21:41;12.10;99.90
3202;DHT22;34843;48.744;8.958;2023-03-19T08:24:06;12.40;99.90
3202;DHT22;34843;48.744;8.958;2023-03-19T08:26:32;12.80;99.90
3202;DHT22;34843;48.744;8.958;2023-03-19T08:28:58;12.90;99.90
3202;DHT22;34843;48.744;8.958;2023-03-19T08:31:24;13.10;99.90
3202;DHT22;34843;48.744;8.958;2023-03-19T08:33:50;13.30;99.90
3202;DHT22;34843;48.744;8.958;2023-03-19T08:36:15;13.60;99.90
3202;DHT22;34843;48.744;8.958;2023-03-19T08:38:41;13.90;99.90
3202;DHT22;34843;48.744;8.958;2023-03-19T08:41:08;14.10;99.90
3202;DHT22;34843;48.744;8.958;2023-03-19T08:43:35;14.50;99.90
3202;DHT22;34843;48.744;8.958;2023-03-19T08:46:01;14.60;99.90
3202;DHT22;34843;48.744;8.958;2023-03-19T08:48:27;14.80;99.90
3202;DHT22;34843;48.744;8.958;2023-03-19T08:50:59;14.90;99.90
3202;DHT22;34843;48.744;8.958;2023-03-19T08:53:26;15.00;99.90
3202;DHT22;34843;48.744;8.958;2023-03-19T08:55:54;15.20;99.90
3202;DHT22;34843;48.744;8.958;2023-03-19T08:58:21;15.20;99.90
3202;DHT22;34843;48.744;8.958;2023-03-19T09:00:47;15.00;99.90
3202;DHT22;34843;48.744;8.958;2023-03-19T09:03:13;15.10;99.90
3202;DHT22;34843;48.744;8.958;2023-03-19T09:05:39;14.90;99.90
3202;DHT22;34843;48.744;8.958;2023-03-19T09:08:05;14.90;99.90
3202;DHT22;34843;48.744;8.958;2023-03-19T09:10:31;14.80;99.90
3202;DHT22;34843;48.744;8.958;2023-03-19T09:12:57;14.90;99.90
3202;DHT22;34843;48.744;8.958;2023-03-19T09:15:22;15.00;99.90
3202;DHT22;34843;48.744;8.958;2023-03-19T09:17:48;15.30;99.90
3202;DHT22;34843;48.744;8.958;2023-03-19T09:20:14;15.60;99.90
3202;DHT22;34843;48.744;8.958;2023-03-19T09:22:39;15.70;99.90
3202;DHT22;34843;48.744;8.958;2023-03-19T09:25:06;15.90;99.90
3202;DHT22;34843;48.744;8.958;2023-03-19T09:27:31;15.90;99.90
3202;DHT22;34843;48.744;8.958;2023-03-19T09:29:57;16.00;99.90
3202;DHT22;34843;48.744;8.958;2023-03-19T09:32:23;16.30;99.90
3202;DHT22;34843;48.744;8.958;2023-03-19T09:34:48;16.40;99.90
3202;DHT22;34843;48.744;8.958;2023-03-19T09:37:14;16.50;99.90
3202;DHT22;34843;48.744;8.958;2023-03-19T09:39:39;16.60;99.90
3202;DHT22;34843;48.744;8.958;2023-03-19T09:42:30;16.70;99.90
3202;DHT22;34843;48.744;8.958;2023-03-19T09:45:01;16.60;99.90
3202;DHT22;34843;48.744;8.958;2023-03-19T09:47:28;16.70;99.90
3202;DHT22;34843;48.744;8.958;2023-03-19T09:50:01;16.60;99.90
3202;DHT22;34843;48.744;8.958;2023-03-19T09:52:48;16.70;99.90
3202;DHT22;34843;48.744;8.958;2023-03-19T09:55:27;16.70;99.90
3202;DHT22;34843;48.744;8.958;2023-03-19T09:57:56;16.90;99.90
3202;DHT22;34843;48.744;8.958;2023-03-19T10:00:35;17.00;99.90
3202;DHT22;34843;48.744;8.958;2023-03-19T10:03:26;17.00;99.90
3202;DHT22;34843;48.744;8.958;2023-03-19T10:08:59;16.60;99.90
3202;DHT22;34843;48.744;8.958;2023-03-19T10:14:11;16.10;99.90
3202;DHT22;34843;48.744;8.958;2023-03-19T10:16:43;15.90;99.90
3202;DHT22;34843;48.744;8.958;2023-03-19T10:19:15;15.90;99.90
3202;DHT22;34843;48.744;8.958;2023-03-19T10:21:47;15.90;99.90
3202;DHT22;34843;48.744;8.958;2023-03-19T10:24:21;15.90;99.90
3202;DHT22;34843;48.744;8.958;2023-03-19T10:26:57;16.00;99.90
3202;DHT22;34843;48.744;8.958;2023-03-19T10:29:23;16.10;99.90
3202;DHT22;34843;48.744;8.958;2023-03-19T10:31:52;16.20;99.90
3202;DHT22;34843;48.744;8.958;2023-03-19T10:36:59;16.40;99.90
3202;DHT22;34843;48.744;8.958;2023-03-19T10:39:26;16.40;99.90
3202;DHT22;34843;48.744;8.958;2023-03-19T10:42:07;16.30;99.90
3202;DHT22;34843;48.744;8.958;2023-03-19T10:44:44;16.40;99.90
3202;DHT22;34843;48.744;8.958;2023-03-19T10:47:14;16.40;99.90
3202;DHT22;34843;48.744;8.958;2023-03-19T10:49:41;16.50;99.90
3202;DHT22;34843;48.744;8.958;2023-03-19T10:52:17;16.60;99.90
3202;DHT22;34843;48.744;8.958;2023-03-19T10:54:44;16.80;99.90
3202;DHT22;34843;48.744;8.958;2023-03-19T10:57:23;17.10;99.90
3202;DHT22;34843;48.744;8.958;2023-03-19T10:59:49;17.30;99.90
3202;DHT22;34843;48.744;8.958;2023-03-19T11:02:17;17.40;99.90
3202;DHT22;34843;48.744;8.958;2023-03-19T11:04:44;17.30;99.90
3202;DHT22;34843;48.744;8.958;2023-03-19T11:07:18;17.20;99.90
3202;DHT22;34843;48.744;8.958;2023-03-19T11:09:48;17.10;99.90
3202;DHT22;34843;48.744;8.958;2023-03-19T11:14:50;17.50;99.90
3202;DHT22;34843;48.744;8.958;2023-03-19T11:19:53;17.90;99.90
3202;DHT22;34843;48.744;8.958;2023-03-19T11:22:24;18.20;99.90
3202;DHT22;34843;48.744;8.958;2023-03-19T11:24:54;18.30;99.90
3202;DHT22;34843;48.744;8.958;2023-03-19T11:27:34;18.40;99.90
3202;DHT22;34843;48.744;8.958;2023-03-19T11:30:02;18.60;99.90
3202;DHT22;34843;48.744;8.958;2023-03-19T11:32:55;19.00;99.90
3202;DHT22;34843;48.744;8.958;2023-03-19T11:35:28;19.20;99.90
3202;DHT22;34843;48.744;8.958;2023-03-19T11:37:58;19.50;99.90
3202;DHT22;34843;48.744;8.958;2023-03-19T11:43:26;20.00;99.90
3202;DHT22;34843;48.744;8.958;2023-03-19T11:46:14;19.80;99.90
3202;DHT22;34843;48.744;8.958;2023-03-19T11:51:49;19.40;99.90
3202;DHT22;34843;48.744;8.958;2023-03-19T11:56:58;19.50;99.90
3202;DHT22;34843;48.744;8.958;2023-03-19T12:15:49;19.30;99.90
3202;DHT22;34843;48.744;8.958;2023-03-19T12:24:04;19.20;99.90
3202;DHT22;34843;48.744;8.958;2023-03-19T12:26:41;19.20;99.90
3202;DHT22;34843;48.744;8.958;2023-03-19T12:32:48;19.00;99.90
3202;DHT22;34843;48.744;8.958;2023-03-19T12:35:23;18.40;99.90
3202;DHT22;34843;48.744;8.958;2023-03-19T12:37:53;17.70;99.90
3202;DHT22;34843;48.744;8.958;2023-03-19T12:40:27;16.90;99.90
3202;DHT22;34843;48.744;8.958;2023-03-19T12:42:58;16.40;99.90
3202;DHT22;34843;48.744;8.958;2023-03-19T12:45:44;16.10;99.90
3202;DHT22;34843;48.744;8.958;2023-03-19T12:48:17;15.70;99.90
3202;DHT22;34843;48.744;8.958;2023-03-19T12:50:49;15.20;99.90
3202;DHT22;34843;48.744;8.958;2023-03-19T12:53:27;14.90;99.90
3202;DHT22;34843;48.744;8.958;2023-03-19T12:55:58;14.60;99.90
3202;DHT22;34843;48.744;8.958;2023-03-19T13:01:19;14.40;99.90
3202;DHT22;34843;48.744;8.958;2023-03-19T13:04:07;14.40;99.90
3202;DHT22;34843;48.744;8.958;2023-03-19T13:06:36;14.60;99.90
3202;DHT22;34843;48.744;8.958;2023-03-19T13:09:28;14.80;99.90
3202;DHT22;34843;48.744;8.958;2023-03-19T13:19:52;14.80;99.90
3202;DHT22;34843;48.744;8.958;2023-03-19T13:22:23;14.50;99.90
3202;DHT22;34843;48.744;8.958;2023-03-19T13:24:51;14.40;99.90
3202;DHT22;34843;48.744;8.958;2023-03-19T13:27:30;14.30;99.90
3202;DHT22;34843;48.744;8.958;2023-03-19T13:35:44;14.30;99.90
3202;DHT22;34843;48.744;8.958;2023-03-19T13:40:42;13.80;99.90
3202;DHT22;34843;48.744;8.958;2023-03-19T13:51:05;13.80;99.90
3202;DHT22;34843;48.744;8.958;2023-03-19T13:59:41;15.00;99.90
3202;DHT22;34843;48.744;8.958;2023-03-19T14:04:50;15.50;99.90
3202;DHT22;34843;48.744;8.958;2023-03-19T14:07:23;15.60;99.90
3202;DHT22;34843;48.744;8.958;2023-03-19T14:10:04;15.80;99.90
3202;DHT22;34843;48.744;8.958;2023-03-19T14:12:40;15.90;99.90
3202;DHT22;34843;48.744;8.958;2023-03-19T14:31:21;15.20;99.90
3202;DHT22;34843;48.744;8.958;2023-03-19T14:36:20;15.10;99.90
3202;DHT22;34843;48.744;8.958;2023-03-19T14:39:02;15.10;99.90
3202;DHT22;34843;48.744;8.958;2023-03-19T14:41:36;15.10;99.90
3202;DHT22;34843;48.744;8.958;2023-03-19T14:50:02;15.30;99.90
3202;DHT22;34843;48.744;8.958;2023-03-19T14:52:34;15.30;99.90
3202;DHT22;34843;48.744;8.958;2023-03-19T14:55:12;15.30;99.90
3202;DHT22;34843;48.744;8.958;2023-03-19T14:57:38;15.20;99.90
3202;DHT22;34843;48.744;8.958;2023-03-19T15:00:06;15.10;99.90
3202;DHT22;34843;48.744;8.958;2023-03-19T15:02:49;14.90;99.90
3202;DHT22;34843;48.744;8.958;2023-03-19T15:05:31;14.90;99.90
3202;DHT22;34843;48.744;8.958;2023-03-19T15:08:03;14.80;99.90
3202;DHT22;34843;48.744;8.958;2023-03-19T15:10:56;14.60;99.90
3202;DHT22;34843;48.744;8.958;2023-03-19T15:19:08;14.10;99.90
3202;DHT22;34843;48.744;8.958;2023-03-19T15:21:38;13.90;99.90
3202;DHT22;34843;48.744;8.958;2023-03-19T15:24:05;13.70;99.90
3202;DHT22;34843;48.744;8.958;2023-03-19T15:26:35;13.70;99.90
3202;DHT22;34843;48.744;8.958;2023-03-19T15:29:02;13.60;99.90
3202;DHT22;34843;48.744;8.958;2023-03-19T15:31:42;13.40;99.90
3202;DHT22;34843;48.744;8.958;2023-03-19T15:34:20;13.20;99.90
3202;DHT22;34843;48.744;8.958;2023-03-19T15:36:47;13.00;99.90
3202;DHT22;34843;48.744;8.958;2023-03-19T15:39:16;12.90;99.90
3202;DHT22;34843;48.744;8.958;2023-03-19T15:41:45;12.70;99.90
3202;DHT22;34843;48.744;8.958;2023-03-19T15:44:17;12.50;99.90
3202;DHT22;34843;48.744;8.958;2023-03-19T15:46:44;12.30;99.90
3202;DHT22;34843;48.744;8.958;2023-03-19T15:49:15;12.20;99.90
3202;DHT22;34843;48.744;8.958;2023-03-19T15:51:46;12.20;99.90
3202;DHT22;34843;48.744;8.958;2023-03-19T15:54:16;12.20;99.90
3202;DHT22;34843;48.744;8.958;2023-03-19T15:56:42;12.20;99.90
3202;DHT22;34843;48.744;8.958;2023-03-19T15:59:08;12.20;99.90
3202;DHT22;34843;48.744;8.958;2023-03-19T16:01:34;12.20;99.90
3202;DHT22;34843;48.744;8.958;2023-03-19T16:04:04;12.20;99.90
3202;DHT22;34843;48.744;8.958;2023-03-19T16:06:35;12.30;99.90
3202;DHT22;34843;48.744;8.958;2023-03-19T16:11:43;12.60;99.90
3202;DHT22;34843;48.744;8.958;2023-03-19T16:14:30;12.60;99.90
3202;DHT22;34843;48.744;8.958;2023-03-19T16:17:10;12.70;99.90
3202;DHT22;34843;48.744;8.958;2023-03-19T16:19:38;12.80;99.90
3202;DHT22;34843;48.744;8.958;2023-03-19T16:22:17;12.90;99.90
3202;DHT22;34843;48.744;8.958;2023-03-19T16:24:45;12.80;99.90
3202;DHT22;34843;48.744;8.958;2023-03-19T16:27:14;12.70;99.90
3202;DHT22;34843;48.744;8.958;2023-03-19T16:29:43;12.70;99.90
3202;DHT22;34843;48.744;8.958;2023-03-19T16:32:21;12.70;99.90
3202;DHT22;34843;48.744;8.958;2023-03-19T16:34:53;12.70;99.90
3202;DHT22;34843;48.744;8.958;2023-03-19T16:42:51;12.40;99.90
3202;DHT22;34843;48.744;8.958;2023-03-19T16:45:25;12.30;99.90
3202;DHT22;34843;48.744;8.958;2023-03-19T16:47:53;12.10;99.90
3202;DHT22;34843;48.744;8.958;2023-03-19T16:50:21;12.10;99.90
3202;DHT22;34843;48.744;8.958;2023-03-19T16:52:48;12.00;99.90
3202;DHT22;34843;48.744;8.958;2023-03-19T16:55:26;12.00;99.90
3202;DHT22;34843;48.744;8.958;2023-03-19T16:58:05;11.90;99.90
3202;DHT22;34843;48.744;8.958;2023-03-19T17:00:32;11.90;99.90
3202;DHT22;34843;48.744;8.958;2023-03-19T17:02:58;11.80;99.90
3202;DHT22;34843;48.744;8.958;2023-03-19T17:05:26;11.70;99.90
3202;DHT22;34843;48.744;8.958;2023-03-19T17:07:53;11.60;99.90
3202;DHT22;34843;48.744;8.958;2023-03-19T17:10:21;11.60;99.90
3202;DHT22;34843;48.744;8.958;2023-03-19T17:12:49;11.50;99.90
3202;DHT22;34843;48.744;8.958;2023-03-19T17:15:23;11.50;99.90
3202;DHT22;34843;48.744;8.958;2023-03-19T17:17:50;11.40;99.90
3202;DHT22;34843;48.744;8.958;2023-03-19T17:20:21;11.20;99.90
3202;DHT22;34843;48.744;8.958;2023-03-19T17:22:48;10.90;99.90
3202;DHT22;34843;48.744;8.958;2023-03-19T17:25:15;10.60;99.90
3202;DHT22;34843;48.744;8.958;2023-03-19T17:27:43;10.50;99.90
3202;DHT22;34843;48.744;8.958;2023-03-19T17:30:09;10.40;99.90
3202;DHT22;34843;48.744;8.958;2023-03-19T17:32:36;10.30;99.90
3202;DHT22;34843;48.744;8.958;2023-03-19T17:35:02;10.30;99.90
3202;DHT22;34843;48.744;8.958;2023-03-19T17:37:29;10.20;99.90
3202;DHT22;34843;48.744;8.958;2023-03-19T17:39:56;10.10;99.90
3202;DHT22;34843;48.744;8.958;2023-03-19T17:42:23;10.00;99.90
3202;DHT22;34843;48.744;8.958;2023-03-19T17:44:49;10.00;99.90
3202;DHT22;34843;48.744;8.958;2023-03-19T17:47:18;9.90;99.90
3202;DHT22;34843;48.744;8.958;2023-03-19T17:49:44;9.90;99.90
3202;DHT22;34843;48.744;8.958;2023-03-19T17:52:15;9.90;99.90
3202;DHT22;34843;48.744;8.958;2023-03-19T17:54:41;9.90;99.90
3202;DHT22;34843;48.744;8.958;2023-03-19T17:57:11;9.90;99.90
3202;DHT22;34843;48.744;8.958;2023-03-19T17:59:36;9.90;99.90
3202;DHT22;34843;48.744;8.958;2023-03-19T18:02:09;10.00;99.90
3202;DHT22;34843;48.744;8.958;2023-03-19T18:04:36;10.00;99.90
3202;DHT22;34843;48.744;8.958;2023-03-19T18:07:02;10.10;99.90
3202;DHT22;34843;48.744;8.958;2023-03-19T18:09:27;10.20;99.90